createdAt,value
2023-01-21T00:02:38.654Z,-4.5
2023-01-21T00:07:45.240Z,-4.4
2023-01-21T00:13:15.371Z,-4.4
2023-01-21T00:18:51.409Z,-4.6
2023-01-21T00:24:44.537Z,-4.7
2023-01-21T00:30:17.449Z,-4.9
2023-01-21T00:35:40.063Z,-5.1
2023-01-21T00:41:00.258Z,-5.2
2023-01-21T00:46:57.188Z,-5.2
2023-01-21T00:52:28.078Z,-5
2023-01-21T00:57:53.446Z,-5
2023-01-21T01:03:24.103Z,-5.2
2023-01-21T01:08:52.688Z,-5.1
2023-01-21T01:14:41.821Z,-5.1
2023-01-21T01:20:01.699Z,-5.2
2023-01-21T01:25:45.967Z,-5.2
2023-01-21T01:31:07.526Z,-5.2
2023-01-21T01:36:39.746Z,-5.5
2023-01-21T01:42:07.467Z,-5.3
2023-01-21T01:47:48.067Z,-5.3
2023-01-21T01:53:13.561Z,-5.4
2023-01-21T01:58:48.278Z,-5.7
2023-01-21T02:04:12.082Z,-5.5
2023-01-21T02:10:05.751Z,-5.6
2023-01-21T02:15:19.005Z,-5.7
2023-01-21T02:21:11.592Z,-5.9
2023-01-21T02:26:26.037Z,-6
2023-01-21T02:31:49.320Z,-6
2023-01-21T02:37:33.532Z,-6.6
2023-01-21T02:43:03.675Z,-6.8
2023-01-21T02:48:51.244Z,-6.9
2023-01-21T02:54:05.620Z,-6.9
2023-01-21T02:59:46.731Z,-6.9
2023-01-21T03:05:18.858Z,-6.5
2023-01-21T03:10:58.314Z,-6.4
2023-01-21T03:16:25.186Z,-6.5
2023-01-21T03:21:53.250Z,-6.6
2023-01-21T03:27:12.283Z,-6.3
2023-01-21T03:32:56.592Z,-6.3
2023-01-21T03:38:17.486Z,-6.7
2023-01-21T03:44:02.449Z,-6.6
2023-01-21T03:49:39.811Z,-6.9
2023-01-21T03:55:19.113Z,-6.9
2023-01-21T04:00:39.028Z,-6.9
2023-01-21T04:06:23.575Z,-7
2023-01-21T04:11:31.866Z,-6.9
2023-01-21T04:17:29.400Z,-7
2023-01-21T04:22:42.933Z,-7
2023-01-21T04:28:30.569Z,-7
2023-01-21T04:33:50.732Z,-7.2
2023-01-21T04:39:17.298Z,-7.3
2023-01-21T04:44:54.935Z,-7.1
2023-01-21T04:50:20.282Z,-7
2023-01-21T04:56:18.647Z,-7.1
2023-01-21T05:01:44.893Z,-7.1
2023-01-21T05:07:02.713Z,-7.1
2023-01-21T05:12:32.239Z,-7
2023-01-21T05:18:17.312Z,-7.2
2023-01-21T05:23:33.959Z,-7.3
2023-01-21T05:29:33.516Z,-7.3
2023-01-21T05:34:40.882Z,-7.3
2023-01-21T05:40:14.816Z,-7.2
2023-01-21T05:45:54.501Z,-7.4
2023-01-21T05:51:18.398Z,-7.6
2023-01-21T05:57:09.175Z,-7.2
2023-01-21T06:02:32.674Z,-7.1
2023-01-21T06:08:05.258Z,-7.1
2023-01-21T06:13:41.924Z,-7.1
2023-01-21T06:19:18.629Z,-7.2
2023-01-21T06:24:54.798Z,-7.3
2023-01-21T06:30:06.721Z,-7.3
2023-01-21T06:35:46.196Z,-7.5
2023-01-21T06:41:15.397Z,-7.4
2023-01-21T06:47:09.254Z,-7.5
2023-01-21T06:52:18.349Z,-7.5
2023-01-21T06:57:58.796Z,-7.5
2023-01-21T07:03:28.037Z,-7.4
2023-01-21T07:08:55.631Z,-7.4
2023-01-21T07:14:50.487Z,-7.5
2023-01-21T07:19:59.729Z,-7.6
2023-01-21T07:25:32.403Z,-7.4
2023-01-21T07:31:16.164Z,-7.3
2023-01-21T07:36:39.856Z,-7.3
2023-01-21T07:42:22.753Z,-7.3
2023-01-21T07:47:45.959Z,-7.3
2023-01-21T07:53:16.648Z,-7.3
2023-01-21T07:59:00.519Z,-7.5
2023-01-21T08:04:40.701Z,-7.4
2023-01-21T08:09:57.491Z,-7.4
2023-01-21T08:15:28.915Z,-7.4
2023-01-21T08:21:15.522Z,-7.3
2023-01-21T08:26:33.659Z,-7.1
2023-01-21T08:37:56.017Z,-6.1
2023-01-21T08:43:20.024Z,-6.3
2023-01-21T08:48:40.211Z,-6.4
2023-01-21T08:54:18.139Z,-6.2
2023-01-21T08:59:56.014Z,-6
2023-01-21T09:05:23.177Z,-5.8
2023-01-21T09:10:58.925Z,-5.7
2023-01-21T09:16:29.066Z,-5.5
2023-01-21T09:22:15.017Z,-5.3
2023-01-21T09:27:35.841Z,-5.1
2023-01-21T09:33:07.861Z,-4.9
2023-01-21T09:38:38.273Z,-4.6
2023-01-21T09:44:15.691Z,-4.4
2023-01-21T09:49:41.766Z,-4.4
2023-01-21T09:55:23.006Z,-4.1
2023-01-21T10:00:51.798Z,-4
2023-01-21T10:06:49.951Z,-3.7
2023-01-21T10:12:07.197Z,-3.5
2023-01-21T10:17:38.241Z,-3.4
2023-01-21T10:23:06.047Z,-3.1
2023-01-21T10:29:00.509Z,-3.1
2023-01-21T10:34:23.820Z,-3
2023-01-21T10:40:08.266Z,-2.8
2023-01-21T10:45:26.671Z,-2.8
2023-01-21T10:50:56.153Z,-2.7
2023-01-21T10:56:40.988Z,-2.6
2023-01-21T11:02:07.517Z,-2.3
2023-01-21T11:07:35.438Z,-2.2
2023-01-21T11:13:32.108Z,-1.9
2023-01-21T11:18:54.200Z,-1.9
2023-01-21T11:24:17.995Z,-1.9
2023-01-21T11:30:01.449Z,-1.5
2023-01-21T11:35:38.749Z,-1.2
2023-01-21T11:41:05.811Z,-1.2
2023-01-21T11:46:28.822Z,-1.3
2023-01-21T11:52:20.480Z,-1
2023-01-21T11:57:43.068Z,-0.8
2023-01-21T12:03:18.060Z,-0.7
2023-01-21T12:09:12.527Z,-0.6
2023-01-21T12:14:28.645Z,-0.6
2023-01-21T12:20:07.604Z,-0.6
2023-01-21T12:25:28.977Z,-0.6
2023-01-21T12:31:26.575Z,-0.4
2023-01-21T12:36:47.262Z,-0.1
2023-01-21T12:42:17.442Z,0
2023-01-21T12:48:10.316Z,0.4
2023-01-21T12:53:43.746Z,0.8
2023-01-21T12:59:01.561Z,0.6
2023-01-21T13:04:46.708Z,0.9
2023-01-21T13:10:17.628Z,0.8
2023-01-21T13:15:40.868Z,0.5
2023-01-21T13:21:35.860Z,0.5
2023-01-21T13:27:01.829Z,0.4
2023-01-21T13:32:18.899Z,0.6
2023-01-21T13:38:01.859Z,0.6
2023-01-21T13:43:47.136Z,0.4
2023-01-21T13:49:05.444Z,0.3
2023-01-21T13:54:44.888Z,0.1
2023-01-21T14:00:33.852Z,-0.2
2023-01-21T14:05:47.718Z,-0.2
2023-01-21T14:11:16.505Z,-0.3
2023-01-21T14:16:57.501Z,-0.2
2023-01-21T14:22:30.381Z,0
2023-01-21T14:28:19.297Z,0
2023-01-21T14:33:54.967Z,0
2023-01-21T14:39:26.839Z,0
2023-01-21T14:44:40.542Z,0
2023-01-21T14:50:16.441Z,-0.1
2023-01-21T14:56:04.856Z,-0.2
2023-01-21T15:01:22.995Z,-0.3
2023-01-21T15:07:17.014Z,-0.4
2023-01-21T15:12:38.128Z,-0.4
2023-01-21T15:18:14.803Z,-0.5
2023-01-21T15:23:49.415Z,-0.7
2023-01-21T15:29:18.407Z,-0.7
2023-01-21T15:34:53.997Z,-0.8
2023-01-21T15:40:33.634Z,-0.8
2023-01-21T15:46:00.991Z,-0.6
2023-01-21T15:51:45.416Z,-0.6
2023-01-21T15:57:12.940Z,-0.8
2023-01-21T16:02:48.862Z,-0.9
2023-01-21T16:08:26.647Z,-0.9
2023-01-21T16:14:06.191Z,-0.9
2023-01-21T16:19:19.245Z,-0.9
2023-01-21T16:25:06.520Z,-0.9
2023-01-21T16:30:40.890Z,-1
2023-01-21T16:35:58.453Z,-1
2023-01-21T16:41:36.659Z,-1
2023-01-21T16:47:09.128Z,-1
2023-01-21T16:52:55.936Z,-1.1
2023-01-21T16:58:18.703Z,-0.9
2023-01-21T17:04:03.403Z,-0.8
2023-01-21T17:09:45.513Z,-0.8
2023-01-21T17:15:09.316Z,-0.8
2023-01-21T17:20:42.401Z,-0.8
2023-01-21T17:26:18.667Z,-0.8
2023-01-21T17:31:55.655Z,-0.9
2023-01-21T17:37:34.127Z,-1
2023-01-21T17:42:41.517Z,-1
2023-01-21T17:48:32.054Z,-0.9
2023-01-21T17:54:08.824Z,-0.9
2023-01-21T17:59:32.945Z,-0.8
2023-01-21T18:05:06.875Z,-0.8
2023-01-21T18:10:40.541Z,-0.8
2023-01-21T18:16:06.188Z,-0.8
2023-01-21T18:21:56.645Z,-0.7
2023-01-21T18:27:36.327Z,-0.8
2023-01-21T18:32:49.308Z,-0.7
2023-01-21T18:38:20.638Z,-0.6
2023-01-21T18:44:10.054Z,-0.6
2023-01-21T18:49:50.619Z,-0.6
2023-01-21T18:55:24.805Z,-0.6
2023-01-21T19:01:08.148Z,-0.7
2023-01-21T19:06:09.731Z,-0.7
2023-01-21T19:11:51.859Z,-0.6
2023-01-21T19:17:37.155Z,-0.6
2023-01-21T19:23:04.856Z,-0.6
2023-01-21T19:28:47.453Z,-0.6
2023-01-21T19:34:12.400Z,-0.7
2023-01-21T19:39:55.997Z,-0.7
2023-01-21T19:45:25.051Z,-0.6
2023-01-21T19:51:05.354Z,-0.6
2023-01-21T19:56:16.992Z,-0.7
2023-01-21T20:01:55.403Z,-0.8
2023-01-21T20:07:43.629Z,-0.8
2023-01-21T20:13:06.748Z,-0.8
2023-01-21T20:18:42.673Z,-0.8
2023-01-21T20:24:06.307Z,-0.8
2023-01-21T20:29:34.648Z,-0.7
2023-01-21T20:35:34.201Z,-0.8
2023-01-21T20:40:41.981Z,-0.8
2023-01-21T20:46:42.544Z,-0.6
2023-01-21T20:51:59.821Z,-0.5
2023-01-21T20:57:34.317Z,-0.6
2023-01-21T21:03:19.328Z,-0.6
2023-01-21T21:08:58.383Z,-0.5
2023-01-21T21:14:13.976Z,-0.6
2023-01-21T21:19:54.843Z,-0.6
2023-01-21T21:25:38.204Z,-0.7
2023-01-21T21:30:49.491Z,-0.7
2023-01-21T21:36:46.864Z,-0.7
2023-01-21T21:42:10.166Z,-0.7
2023-01-21T21:47:52.467Z,-0.7
2023-01-21T21:53:05.649Z,-0.8
2023-01-21T21:58:46.304Z,-0.9
2023-01-21T22:04:15.955Z,-1
2023-01-21T22:09:52.882Z,-1.1
2023-01-21T22:15:38.052Z,-1.1
2023-01-21T22:20:56.064Z,-1.1
2023-01-21T22:26:42.665Z,-1.2
2023-01-21T22:32:18.749Z,-1.2
2023-01-21T22:38:03.765Z,-1.1
2023-01-21T22:43:36.979Z,-1.1
2023-01-21T22:48:56.035Z,-1.2
2023-01-21T22:54:43.024Z,-1
2023-01-21T23:00:00.992Z,-1
2023-01-21T23:05:47.970Z,-1
2023-01-21T23:11:01.507Z,-1
2023-01-21T23:16:59.955Z,-1
2023-01-21T23:22:26.090Z,-1.1
2023-01-21T23:28:07.962Z,-1.1
2023-01-21T23:33:12.986Z,-1.1
2023-01-21T23:38:53.782Z,-1.2
2023-01-21T23:44:33.230Z,-1.2
2023-01-21T23:50:00.094Z,-1.1
2023-01-21T23:55:32.501Z,-1.1
